sensor_id;sensor_type;location;lat;lon;timestamp;P1;durP1;ratioP1;P2;durP2;ratioP2
66546;SDS011;53400;50.364;14.874;2023-02-15T00:01:16;40.33;;;19.73;;
66546;SDS011;53400;50.364;14.874;2023-02-15T00:03:42;39.78;;;19.23;;
66546;SDS011;53400;50.364;14.874;2023-02-15T00:06:07;42.83;;;20.02;;
66546;SDS011;53400;50.364;14.874;2023-02-15T00:08:33;41.63;;;21.25;;
66546;SDS011;53400;50.364;14.874;2023-02-15T00:11:03;44.10;;;21.98;;
66546;SDS011;53400;50.364;14.874;2023-02-15T00:13:30;45.63;;;20.35;;
66546;SDS011;53400;50.364;14.874;2023-02-15T00:15:59;43.38;;;20.80;;
66546;SDS011;53400;50.364;14.874;2023-02-15T00:18:27;46.83;;;21.40;;
66546;SDS011;53400;50.364;14.874;2023-02-15T00:20:53;42.17;;;20.05;;
66546;SDS011;53400;50.364;14.874;2023-02-15T00:23:19;38.88;;;19.17;;
66546;SDS011;53400;50.364;14.874;2023-02-15T00:25:44;45.03;;;20.75;;
66546;SDS011;53400;50.364;14.874;2023-02-15T00:28:10;42.28;;;20.60;;
66546;SDS011;53400;50.364;14.874;2023-02-15T00:30:36;45.80;;;21.70;;
66546;SDS011;53400;50.364;14.874;2023-02-15T00:33:02;41.85;;;20.38;;
66546;SDS011;53400;50.364;14.874;2023-02-15T00:35:29;37.45;;;18.17;;
66546;SDS011;53400;50.364;14.874;2023-02-15T00:37:55;40.42;;;18.17;;
66546;SDS011;53400;50.364;14.874;2023-02-15T00:40:21;40.63;;;20.50;;
66546;SDS011;53400;50.364;14.874;2023-02-15T00:42:47;41.75;;;19.77;;
66546;SDS011;53400;50.364;14.874;2023-02-15T00:45:13;42.83;;;20.27;;
66546;SDS011;53400;50.364;14.874;2023-02-15T00:47:39;42.55;;;19.73;;
66546;SDS011;53400;50.364;14.874;2023-02-15T00:50:06;47.38;;;20.77;;
66546;SDS011;53400;50.364;14.874;2023-02-15T00:52:33;43.13;;;20.15;;
66546;SDS011;53400;50.364;14.874;2023-02-15T00:54:59;44.22;;;20.48;;
66546;SDS011;53400;50.364;14.874;2023-02-15T00:57:25;40.35;;;20.27;;
66546;SDS011;53400;50.364;14.874;2023-02-15T00:59:51;39.55;;;19.92;;
66546;SDS011;53400;50.364;14.874;2023-02-15T01:02:16;39.15;;;19.17;;
66546;SDS011;53400;50.364;14.874;2023-02-15T01:04:42;36.25;;;17.75;;
66546;SDS011;53400;50.364;14.874;2023-02-15T01:07:08;33.13;;;16.80;;
66546;SDS011;53400;50.364;14.874;2023-02-15T01:09:35;37.47;;;17.13;;
66546;SDS011;53400;50.364;14.874;2023-02-15T01:12:01;36.78;;;17.98;;
66546;SDS011;53400;50.364;14.874;2023-02-15T01:14:27;37.08;;;17.90;;
66546;SDS011;53400;50.364;14.874;2023-02-15T01:16:53;36.75;;;16.80;;
66546;SDS011;53400;50.364;14.874;2023-02-15T01:19:19;34.20;;;16.58;;
66546;SDS011;53400;50.364;14.874;2023-02-15T01:21:45;34.53;;;16.30;;
66546;SDS011;53400;50.364;14.874;2023-02-15T01:24:11;35.63;;;17.73;;
66546;SDS011;53400;50.364;14.874;2023-02-15T01:26:39;36.95;;;17.83;;
66546;SDS011;53400;50.364;14.874;2023-02-15T01:29:06;36.08;;;17.48;;
66546;SDS011;53400;50.364;14.874;2023-02-15T01:31:31;34.42;;;16.23;;
66546;SDS011;53400;50.364;14.874;2023-02-15T01:33:57;35.85;;;16.73;;
66546;SDS011;53400;50.364;14.874;2023-02-15T01:36:23;36.75;;;17.42;;
66546;SDS011;53400;50.364;14.874;2023-02-15T01:38:49;34.08;;;17.20;;
66546;SDS011;53400;50.364;14.874;2023-02-15T01:41:15;36.38;;;17.10;;
66546;SDS011;53400;50.364;14.874;2023-02-15T01:43:53;35.25;;;16.65;;
66546;SDS011;53400;50.364;14.874;2023-02-15T01:46:23;35.47;;;16.85;;
66546;SDS011;53400;50.364;14.874;2023-02-15T01:48:54;36.80;;;17.00;;
66546;SDS011;53400;50.364;14.874;2023-02-15T01:51:25;37.30;;;17.50;;
66546;SDS011;53400;50.364;14.874;2023-02-15T01:53:56;36.97;;;17.27;;
66546;SDS011;53400;50.364;14.874;2023-02-15T01:56:26;35.30;;;17.60;;
66546;SDS011;53400;50.364;14.874;2023-02-15T01:58:56;39.95;;;19.20;;
66546;SDS011;53400;50.364;14.874;2023-02-15T02:01:25;36.67;;;18.08;;
66546;SDS011;53400;50.364;14.874;2023-02-15T02:03:56;39.72;;;17.75;;
66546;SDS011;53400;50.364;14.874;2023-02-15T02:06:27;38.95;;;18.05;;
66546;SDS011;53400;50.364;14.874;2023-02-15T02:08:54;33.13;;;16.20;;
66546;SDS011;53400;50.364;14.874;2023-02-15T02:11:21;36.20;;;17.80;;
66546;SDS011;53400;50.364;14.874;2023-02-15T02:13:47;37.60;;;17.95;;
66546;SDS011;53400;50.364;14.874;2023-02-15T02:16:17;35.75;;;17.38;;
66546;SDS011;53400;50.364;14.874;2023-02-15T02:18:52;36.80;;;17.10;;
66546;SDS011;53400;50.364;14.874;2023-02-15T02:21:35;35.92;;;17.83;;
66546;SDS011;53400;50.364;14.874;2023-02-15T02:24:23;37.28;;;17.58;;
66546;SDS011;53400;50.364;14.874;2023-02-15T02:27:24;37.50;;;17.15;;
66546;SDS011;53400;50.364;14.874;2023-02-15T02:36:01;40.05;;;17.77;;
66546;SDS011;53400;50.364;14.874;2023-02-15T02:38:37;45.78;;;20.90;;
66546;SDS011;53400;50.364;14.874;2023-02-15T02:41:12;45.95;;;21.70;;
66546;SDS011;53400;50.364;14.874;2023-02-15T02:43:45;42.10;;;19.25;;
66546;SDS011;53400;50.364;14.874;2023-02-15T02:48:47;40.65;;;19.27;;
66546;SDS011;53400;50.364;14.874;2023-02-15T02:51:14;40.42;;;18.40;;
66546;SDS011;53400;50.364;14.874;2023-02-15T02:53:47;41.70;;;19.80;;
66546;SDS011;53400;50.364;14.874;2023-02-15T02:56:18;46.70;;;19.92;;
66546;SDS011;53400;50.364;14.874;2023-02-15T02:58:48;44.70;;;20.50;;
66546;SDS011;53400;50.364;14.874;2023-02-15T03:01:21;42.83;;;21.10;;
66546;SDS011;53400;50.364;14.874;2023-02-15T03:03:54;41.78;;;19.45;;
66546;SDS011;53400;50.364;14.874;2023-02-15T03:06:25;41.17;;;18.95;;
66546;SDS011;53400;50.364;14.874;2023-02-15T03:09:00;44.92;;;19.92;;
66546;SDS011;53400;50.364;14.874;2023-02-15T03:11:31;41.00;;;20.20;;
66546;SDS011;53400;50.364;14.874;2023-02-15T03:13:57;44.20;;;20.17;;
66546;SDS011;53400;50.364;14.874;2023-02-15T03:16:24;41.15;;;19.00;;
66546;SDS011;53400;50.364;14.874;2023-02-15T03:18:51;44.15;;;18.98;;
66546;SDS011;53400;50.364;14.874;2023-02-15T03:21:25;45.45;;;20.23;;
66546;SDS011;53400;50.364;14.874;2023-02-15T03:23:57;40.97;;;20.13;;
66546;SDS011;53400;50.364;14.874;2023-02-15T03:26:29;43.30;;;20.08;;
66546;SDS011;53400;50.364;14.874;2023-02-15T03:28:55;42.22;;;19.13;;
66546;SDS011;53400;50.364;14.874;2023-02-15T03:31:26;43.30;;;19.63;;
66546;SDS011;53400;50.364;14.874;2023-02-15T03:33:57;44.30;;;19.48;;
66546;SDS011;53400;50.364;14.874;2023-02-15T03:36:28;41.78;;;20.75;;
66546;SDS011;53400;50.364;14.874;2023-02-15T03:38:59;43.67;;;20.35;;
66546;SDS011;53400;50.364;14.874;2023-02-15T03:41:32;45.83;;;19.83;;
66546;SDS011;53400;50.364;14.874;2023-02-15T03:44:03;40.78;;;18.30;;
66546;SDS011;53400;50.364;14.874;2023-02-15T03:46:33;43.92;;;19.85;;
66546;SDS011;53400;50.364;14.874;2023-02-15T03:49:07;41.53;;;19.13;;
66546;SDS011;53400;50.364;14.874;2023-02-15T03:51:37;40.47;;;20.20;;
66546;SDS011;53400;50.364;14.874;2023-02-15T03:54:07;41.10;;;19.27;;
66546;SDS011;53400;50.364;14.874;2023-02-15T03:56:35;40.97;;;18.88;;
66546;SDS011;53400;50.364;14.874;2023-02-15T03:59:03;44.75;;;19.38;;
66546;SDS011;53400;50.364;14.874;2023-02-15T04:01:52;42.80;;;18.77;;
66546;SDS011;53400;50.364;14.874;2023-02-15T04:04:30;43.45;;;20.05;;
66546;SDS011;53400;50.364;14.874;2023-02-15T04:06:58;49.05;;;21.17;;
66546;SDS011;53400;50.364;14.874;2023-02-15T04:09:24;44.75;;;21.20;;
66546;SDS011;53400;50.364;14.874;2023-02-15T04:12:08;52.78;;;23.17;;
66546;SDS011;53400;50.364;14.874;2023-02-15T04:14:34;46.15;;;20.73;;
66546;SDS011;53400;50.364;14.874;2023-02-15T04:17:19;49.78;;;22.52;;
66546;SDS011;53400;50.364;14.874;2023-02-15T04:19:46;46.28;;;20.85;;
66546;SDS011;53400;50.364;14.874;2023-02-15T04:22:30;48.70;;;22.45;;
66546;SDS011;53400;50.364;14.874;2023-02-15T04:25:15;45.85;;;20.42;;
66546;SDS011;53400;50.364;14.874;2023-02-15T04:27:42;43.63;;;20.83;;
66546;SDS011;53400;50.364;14.874;2023-02-15T04:30:09;47.00;;;22.95;;
66546;SDS011;53400;50.364;14.874;2023-02-15T04:32:36;49.03;;;21.85;;
66546;SDS011;53400;50.364;14.874;2023-02-15T04:35:05;50.10;;;22.17;;
66546;SDS011;53400;50.364;14.874;2023-02-15T04:37:31;46.65;;;20.65;;
66546;SDS011;53400;50.364;14.874;2023-02-15T04:39:58;46.80;;;21.05;;
66546;SDS011;53400;50.364;14.874;2023-02-15T04:42:24;46.78;;;21.88;;
66546;SDS011;53400;50.364;14.874;2023-02-15T04:44:50;46.38;;;21.15;;
66546;SDS011;53400;50.364;14.874;2023-02-15T04:47:16;44.67;;;20.30;;
66546;SDS011;53400;50.364;14.874;2023-02-15T04:49:42;44.92;;;19.85;;
66546;SDS011;53400;50.364;14.874;2023-02-15T04:52:09;48.60;;;19.52;;
66546;SDS011;53400;50.364;14.874;2023-02-15T04:54:35;43.15;;;20.00;;
66546;SDS011;53400;50.364;14.874;2023-02-15T04:57:01;44.47;;;19.90;;
66546;SDS011;53400;50.364;14.874;2023-02-15T04:59:27;47.25;;;21.20;;
66546;SDS011;53400;50.364;14.874;2023-02-15T05:01:53;45.50;;;19.05;;
66546;SDS011;53400;50.364;14.874;2023-02-15T05:04:19;49.97;;;21.00;;
66546;SDS011;53400;50.364;14.874;2023-02-15T05:06:45;45.88;;;20.27;;
66546;SDS011;53400;50.364;14.874;2023-02-15T05:09:12;47.47;;;21.02;;
66546;SDS011;53400;50.364;14.874;2023-02-15T05:11:38;48.17;;;21.88;;
66546;SDS011;53400;50.364;14.874;2023-02-15T05:14:04;47.05;;;20.70;;
66546;SDS011;53400;50.364;14.874;2023-02-15T05:16:30;49.05;;;21.92;;
66546;SDS011;53400;50.364;14.874;2023-02-15T05:18:56;49.30;;;21.42;;
66546;SDS011;53400;50.364;14.874;2023-02-15T05:21:22;51.25;;;22.35;;
66546;SDS011;53400;50.364;14.874;2023-02-15T05:23:47;44.00;;;19.48;;
66546;SDS011;53400;50.364;14.874;2023-02-15T05:26:16;46.92;;;20.70;;
66546;SDS011;53400;50.364;14.874;2023-02-15T05:29:01;49.40;;;20.48;;
66546;SDS011;53400;50.364;14.874;2023-02-15T05:31:27;47.22;;;20.83;;
66546;SDS011;53400;50.364;14.874;2023-02-15T05:33:53;55.53;;;21.50;;
66546;SDS011;53400;50.364;14.874;2023-02-15T05:36:19;49.15;;;21.67;;
66546;SDS011;53400;50.364;14.874;2023-02-15T05:38:44;47.58;;;21.50;;
66546;SDS011;53400;50.364;14.874;2023-02-15T05:41:11;49.40;;;21.65;;
66546;SDS011;53400;50.364;14.874;2023-02-15T05:43:38;48.45;;;20.63;;
66546;SDS011;53400;50.364;14.874;2023-02-15T05:46:04;52.92;;;22.13;;
66546;SDS011;53400;50.364;14.874;2023-02-15T05:48:31;50.65;;;22.00;;
66546;SDS011;53400;50.364;14.874;2023-02-15T05:50:57;52.92;;;22.70;;
66546;SDS011;53400;50.364;14.874;2023-02-15T05:53:24;50.03;;;20.92;;
66546;SDS011;53400;50.364;14.874;2023-02-15T05:55:50;55.30;;;22.67;;
66546;SDS011;53400;50.364;14.874;2023-02-15T05:58:16;54.65;;;22.15;;
66546;SDS011;53400;50.364;14.874;2023-02-15T06:00:43;49.40;;;20.38;;
66546;SDS011;53400;50.364;14.874;2023-02-15T06:03:09;50.15;;;21.42;;
66546;SDS011;53400;50.364;14.874;2023-02-15T06:05:35;53.20;;;22.20;;
66546;SDS011;53400;50.364;14.874;2023-02-15T06:08:01;49.78;;;20.38;;
66546;SDS011;53400;50.364;14.874;2023-02-15T06:10:28;52.67;;;22.23;;
66546;SDS011;53400;50.364;14.874;2023-02-15T06:12:53;47.75;;;20.23;;
66546;SDS011;53400;50.364;14.874;2023-02-15T06:15:19;53.47;;;22.88;;
66546;SDS011;53400;50.364;14.874;2023-02-15T06:17:46;52.45;;;22.35;;
66546;SDS011;53400;50.364;14.874;2023-02-15T06:20:12;55.05;;;22.95;;
66546;SDS011;53400;50.364;14.874;2023-02-15T06:22:38;52.63;;;22.65;;
66546;SDS011;53400;50.364;14.874;2023-02-15T06:25:04;56.63;;;22.83;;
66546;SDS011;53400;50.364;14.874;2023-02-15T06:27:30;51.33;;;22.08;;
66546;SDS011;53400;50.364;14.874;2023-02-15T06:29:56;48.33;;;21.25;;
66546;SDS011;53400;50.364;14.874;2023-02-15T06:32:22;52.92;;;23.77;;
66546;SDS011;53400;50.364;14.874;2023-02-15T06:34:49;47.53;;;20.80;;
66546;SDS011;53400;50.364;14.874;2023-02-15T06:37:15;56.08;;;22.45;;
66546;SDS011;53400;50.364;14.874;2023-02-15T06:39:41;54.47;;;21.40;;
66546;SDS011;53400;50.364;14.874;2023-02-15T06:42:08;55.00;;;21.58;;
66546;SDS011;53400;50.364;14.874;2023-02-15T06:44:34;57.17;;;23.38;;
66546;SDS011;53400;50.364;14.874;2023-02-15T06:46:59;55.70;;;21.83;;
66546;SDS011;53400;50.364;14.874;2023-02-15T06:49:25;57.15;;;23.50;;
66546;SDS011;53400;50.364;14.874;2023-02-15T06:51:52;50.53;;;21.58;;
66546;SDS011;53400;50.364;14.874;2023-02-15T06:54:18;55.00;;;21.45;;
66546;SDS011;53400;50.364;14.874;2023-02-15T06:56:44;48.20;;;21.92;;
66546;SDS011;53400;50.364;14.874;2023-02-15T06:59:10;52.92;;;21.13;;
66546;SDS011;53400;50.364;14.874;2023-02-15T07:01:36;47.85;;;20.25;;
66546;SDS011;53400;50.364;14.874;2023-02-15T07:04:02;48.97;;;19.88;;
66546;SDS011;53400;50.364;14.874;2023-02-15T07:06:30;43.30;;;17.95;;
66546;SDS011;53400;50.364;14.874;2023-02-15T07:08:58;51.13;;;21.10;;
66546;SDS011;53400;50.364;14.874;2023-02-15T07:11:24;43.22;;;17.52;;
66546;SDS011;53400;50.364;14.874;2023-02-15T07:14:08;47.63;;;18.70;;
66546;SDS011;53400;50.364;14.874;2023-02-15T07:16:34;50.65;;;20.02;;
66546;SDS011;53400;50.364;14.874;2023-02-15T07:19:00;47.10;;;18.42;;
66546;SDS011;53400;50.364;14.874;2023-02-15T07:21:26;46.78;;;20.50;;
66546;SDS011;53400;50.364;14.874;2023-02-15T07:23:52;46.55;;;19.30;;
66546;SDS011;53400;50.364;14.874;2023-02-15T07:26:22;51.53;;;21.90;;
66546;SDS011;53400;50.364;14.874;2023-02-15T07:28:48;50.13;;;20.63;;
66546;SDS011;53400;50.364;14.874;2023-02-15T07:31:14;44.35;;;19.60;;
66546;SDS011;53400;50.364;14.874;2023-02-15T07:33:40;46.90;;;18.98;;
66546;SDS011;53400;50.364;14.874;2023-02-15T07:36:06;47.03;;;19.40;;
66546;SDS011;53400;50.364;14.874;2023-02-15T07:38:35;48.53;;;20.08;;
66546;SDS011;53400;50.364;14.874;2023-02-15T07:41:03;46.45;;;18.55;;
66546;SDS011;53400;50.364;14.874;2023-02-15T07:43:34;48.25;;;17.52;;
66546;SDS011;53400;50.364;14.874;2023-02-15T07:46:01;49.92;;;20.73;;
66546;SDS011;53400;50.364;14.874;2023-02-15T07:48:27;47.60;;;18.88;;
66546;SDS011;53400;50.364;14.874;2023-02-15T07:50:53;46.28;;;18.38;;
66546;SDS011;53400;50.364;14.874;2023-02-15T07:53:19;53.50;;;20.75;;
66546;SDS011;53400;50.364;14.874;2023-02-15T07:55:45;53.33;;;21.70;;
66546;SDS011;53400;50.364;14.874;2023-02-15T07:58:11;49.47;;;19.00;;
66546;SDS011;53400;50.364;14.874;2023-02-15T08:00:38;49.35;;;19.95;;
66546;SDS011;53400;50.364;14.874;2023-02-15T08:03:23;49.78;;;18.52;;
66546;SDS011;53400;50.364;14.874;2023-02-15T08:05:54;51.50;;;20.90;;
66546;SDS011;53400;50.364;14.874;2023-02-15T08:08:21;45.65;;;18.73;;
66546;SDS011;53400;50.364;14.874;2023-02-15T08:11:00;50.78;;;20.02;;
66546;SDS011;53400;50.364;14.874;2023-02-15T08:13:49;49.72;;;20.10;;
66546;SDS011;53400;50.364;14.874;2023-02-15T08:16:23;50.90;;;20.13;;
66546;SDS011;53400;50.364;14.874;2023-02-15T08:18:52;51.45;;;19.85;;
66546;SDS011;53400;50.364;14.874;2023-02-15T08:21:18;47.63;;;20.67;;
66546;SDS011;53400;50.364;14.874;2023-02-15T08:23:45;51.70;;;19.30;;
66546;SDS011;53400;50.364;14.874;2023-02-15T08:26:11;48.13;;;19.60;;
66546;SDS011;53400;50.364;14.874;2023-02-15T08:28:38;49.25;;;21.10;;
66546;SDS011;53400;50.364;14.874;2023-02-15T08:31:04;43.95;;;18.50;;
66546;SDS011;53400;50.364;14.874;2023-02-15T08:33:33;46.05;;;18.83;;
66546;SDS011;53400;50.364;14.874;2023-02-15T08:36:02;46.38;;;19.58;;
66546;SDS011;53400;50.364;14.874;2023-02-15T08:38:29;51.72;;;21.65;;
66546;SDS011;53400;50.364;14.874;2023-02-15T08:40:55;48.72;;;19.70;;
66546;SDS011;53400;50.364;14.874;2023-02-15T08:43:21;49.03;;;19.40;;
66546;SDS011;53400;50.364;14.874;2023-02-15T08:45:47;44.78;;;18.85;;
66546;SDS011;53400;50.364;14.874;2023-02-15T08:48:13;50.40;;;19.65;;
66546;SDS011;53400;50.364;14.874;2023-02-15T08:50:40;45.60;;;17.58;;
66546;SDS011;53400;50.364;14.874;2023-02-15T08:53:06;53.80;;;20.80;;
66546;SDS011;53400;50.364;14.874;2023-02-15T08:55:32;46.97;;;18.17;;
66546;SDS011;53400;50.364;14.874;2023-02-15T08:57:58;53.45;;;21.40;;
66546;SDS011;53400;50.364;14.874;2023-02-15T09:00:24;48.97;;;20.20;;
66546;SDS011;53400;50.364;14.874;2023-02-15T09:02:50;50.08;;;20.60;;
66546;SDS011;53400;50.364;14.874;2023-02-15T09:05:17;46.45;;;19.15;;
66546;SDS011;53400;50.364;14.874;2023-02-15T09:07:45;49.85;;;19.73;;
66546;SDS011;53400;50.364;14.874;2023-02-15T09:10:10;51.78;;;20.30;;
66546;SDS011;53400;50.364;14.874;2023-02-15T09:12:36;51.47;;;19.10;;
66546;SDS011;53400;50.364;14.874;2023-02-15T09:15:02;45.70;;;17.58;;
66546;SDS011;53400;50.364;14.874;2023-02-15T09:17:29;52.00;;;19.83;;
66546;SDS011;53400;50.364;14.874;2023-02-15T09:19:54;48.13;;;18.52;;
66546;SDS011;53400;50.364;14.874;2023-02-15T09:22:20;50.00;;;19.65;;
66546;SDS011;53400;50.364;14.874;2023-02-15T09:24:48;51.22;;;19.20;;
66546;SDS011;53400;50.364;14.874;2023-02-15T09:27:14;50.97;;;19.38;;
66546;SDS011;53400;50.364;14.874;2023-02-15T09:29:39;50.63;;;19.33;;
66546;SDS011;53400;50.364;14.874;2023-02-15T09:32:06;46.95;;;19.77;;
66546;SDS011;53400;50.364;14.874;2023-02-15T09:34:31;44.95;;;18.25;;
66546;SDS011;53400;50.364;14.874;2023-02-15T09:36:58;57.90;;;18.90;;
66546;SDS011;53400;50.364;14.874;2023-02-15T09:39:24;52.67;;;21.15;;
66546;SDS011;53400;50.364;14.874;2023-02-15T09:42:18;47.15;;;18.38;;
66546;SDS011;53400;50.364;14.874;2023-02-15T09:45:31;48.03;;;17.33;;
66546;SDS011;53400;50.364;14.874;2023-02-15T09:48:15;32.40;;;13.75;;
66546;SDS011;53400;50.364;14.874;2023-02-15T09:51:04;49.97;;;18.63;;
66546;SDS011;53400;50.364;14.874;2023-02-15T09:53:53;51.03;;;18.50;;
66546;SDS011;53400;50.364;14.874;2023-02-15T09:56:31;47.15;;;19.45;;
66546;SDS011;53400;50.364;14.874;2023-02-15T09:59:06;46.80;;;18.75;;
66546;SDS011;53400;50.364;14.874;2023-02-15T10:01:45;44.65;;;17.92;;
66546;SDS011;53400;50.364;14.874;2023-02-15T10:04:24;48.80;;;17.65;;
66546;SDS011;53400;50.364;14.874;2023-02-15T10:07:01;50.22;;;19.90;;
66546;SDS011;53400;50.364;14.874;2023-02-15T10:09:44;48.47;;;18.45;;
66546;SDS011;53400;50.364;14.874;2023-02-15T10:12:28;46.55;;;18.23;;
66546;SDS011;53400;50.364;14.874;2023-02-15T10:15:18;55.63;;;19.73;;
66546;SDS011;53400;50.364;14.874;2023-02-15T10:18:20;44.83;;;18.25;;
66546;SDS011;53400;50.364;14.874;2023-02-15T10:21:07;47.08;;;17.90;;
66546;SDS011;53400;50.364;14.874;2023-02-15T10:23:50;46.58;;;17.50;;
66546;SDS011;53400;50.364;14.874;2023-02-15T10:26:27;50.75;;;19.00;;
66546;SDS011;53400;50.364;14.874;2023-02-15T10:29:03;49.97;;;20.02;;
66546;SDS011;53400;50.364;14.874;2023-02-15T10:31:36;47.05;;;18.70;;
66546;SDS011;53400;50.364;14.874;2023-02-15T10:34:13;49.75;;;20.35;;
66546;SDS011;53400;50.364;14.874;2023-02-15T10:36:49;52.03;;;20.70;;
66546;SDS011;53400;50.364;14.874;2023-02-15T10:39:27;52.95;;;20.30;;
66546;SDS011;53400;50.364;14.874;2023-02-15T10:42:04;53.40;;;18.95;;
66546;SDS011;53400;50.364;14.874;2023-02-15T10:44:41;49.33;;;16.73;;
66546;SDS011;53400;50.364;14.874;2023-02-15T10:47:26;56.55;;;19.70;;
66546;SDS011;53400;50.364;14.874;2023-02-15T10:50:16;50.08;;;19.42;;
66546;SDS011;53400;50.364;14.874;2023-02-15T10:52:55;50.15;;;19.83;;
66546;SDS011;53400;50.364;14.874;2023-02-15T10:55:36;50.50;;;20.25;;
66546;SDS011;53400;50.364;14.874;2023-02-15T10:58:15;46.95;;;18.75;;
66546;SDS011;53400;50.364;14.874;2023-02-15T11:00:51;39.72;;;16.02;;
66546;SDS011;53400;50.364;14.874;2023-02-15T11:03:34;42.42;;;14.80;;
66546;SDS011;53400;50.364;14.874;2023-02-15T11:06:09;55.47;;;20.97;;
66546;SDS011;53400;50.364;14.874;2023-02-15T11:08:39;55.28;;;20.27;;
66546;SDS011;53400;50.364;14.874;2023-02-15T11:11:09;52.72;;;19.30;;
66546;SDS011;53400;50.364;14.874;2023-02-15T11:13:43;52.83;;;20.52;;
66546;SDS011;53400;50.364;14.874;2023-02-15T11:16:13;52.33;;;21.27;;
66546;SDS011;53400;50.364;14.874;2023-02-15T11:18:43;51.67;;;19.50;;
66546;SDS011;53400;50.364;14.874;2023-02-15T11:21:17;52.22;;;20.55;;
66546;SDS011;53400;50.364;14.874;2023-02-15T11:23:46;50.70;;;19.10;;
66546;SDS011;53400;50.364;14.874;2023-02-15T11:26:14;53.55;;;21.13;;
66546;SDS011;53400;50.364;14.874;2023-02-15T11:28:45;51.20;;;19.95;;
66546;SDS011;53400;50.364;14.874;2023-02-15T11:31:16;55.67;;;20.40;;
66546;SDS011;53400;50.364;14.874;2023-02-15T11:33:46;49.63;;;19.27;;
66546;SDS011;53400;50.364;14.874;2023-02-15T11:36:17;57.20;;;20.43;;
66546;SDS011;53400;50.364;14.874;2023-02-15T11:38:46;48.40;;;19.17;;
66546;SDS011;53400;50.364;14.874;2023-02-15T11:41:18;50.60;;;20.42;;
66546;SDS011;53400;50.364;14.874;2023-02-15T11:43:50;51.53;;;20.52;;
66546;SDS011;53400;50.364;14.874;2023-02-15T11:46:22;54.13;;;21.45;;
66546;SDS011;53400;50.364;14.874;2023-02-15T11:48:49;53.20;;;20.48;;
66546;SDS011;53400;50.364;14.874;2023-02-15T11:51:16;38.15;;;15.40;;
66546;SDS011;53400;50.364;14.874;2023-02-15T11:53:44;59.08;;;20.65;;
66546;SDS011;53400;50.364;14.874;2023-02-15T11:56:14;51.88;;;18.92;;
66546;SDS011;53400;50.364;14.874;2023-02-15T11:58:43;53.47;;;21.20;;
66546;SDS011;53400;50.364;14.874;2023-02-15T12:01:14;51.67;;;20.13;;
66546;SDS011;53400;50.364;14.874;2023-02-15T12:03:45;49.95;;;19.77;;
66546;SDS011;53400;50.364;14.874;2023-02-15T12:06:22;57.58;;;21.45;;
66546;SDS011;53400;50.364;14.874;2023-02-15T12:08:52;50.67;;;18.45;;
66546;SDS011;53400;50.364;14.874;2023-02-15T12:11:25;58.78;;;20.20;;
66546;SDS011;53400;50.364;14.874;2023-02-15T12:13:57;53.88;;;21.52;;
66546;SDS011;53400;50.364;14.874;2023-02-15T12:16:25;54.85;;;20.13;;
66546;SDS011;53400;50.364;14.874;2023-02-15T12:18:53;55.45;;;21.10;;
66546;SDS011;53400;50.364;14.874;2023-02-15T12:21:27;51.70;;;19.52;;
66546;SDS011;53400;50.364;14.874;2023-02-15T12:23:56;48.45;;;20.08;;
66546;SDS011;53400;50.364;14.874;2023-02-15T12:26:27;57.67;;;22.48;;
66546;SDS011;53400;50.364;14.874;2023-02-15T12:28:55;55.60;;;22.17;;
66546;SDS011;53400;50.364;14.874;2023-02-15T12:31:27;54.50;;;23.08;;
66546;SDS011;53400;50.364;14.874;2023-02-15T12:33:59;54.42;;;20.23;;
66546;SDS011;53400;50.364;14.874;2023-02-15T12:36:30;54.83;;;21.45;;
66546;SDS011;53400;50.364;14.874;2023-02-15T12:39:17;50.95;;;21.27;;
66546;SDS011;53400;50.364;14.874;2023-02-15T12:41:45;52.97;;;21.10;;
66546;SDS011;53400;50.364;14.874;2023-02-15T12:44:23;53.17;;;23.08;;
66546;SDS011;53400;50.364;14.874;2023-02-15T12:46:55;54.03;;;21.13;;
66546;SDS011;53400;50.364;14.874;2023-02-15T12:49:23;51.42;;;20.75;;
66546;SDS011;53400;50.364;14.874;2023-02-15T12:51:52;53.70;;;23.15;;
66546;SDS011;53400;50.364;14.874;2023-02-15T12:54:29;57.80;;;22.02;;
66546;SDS011;53400;50.364;14.874;2023-02-15T12:56:59;49.78;;;19.58;;
66546;SDS011;53400;50.364;14.874;2023-02-15T12:59:37;52.97;;;20.23;;
66546;SDS011;53400;50.364;14.874;2023-02-15T13:02:14;51.60;;;20.98;;
66546;SDS011;53400;50.364;14.874;2023-02-15T13:07:15;54.55;;;19.90;;
66546;SDS011;53400;50.364;14.874;2023-02-15T13:09:41;51.28;;;20.35;;
66546;SDS011;53400;50.364;14.874;2023-02-15T13:12:10;54.45;;;20.48;;
66546;SDS011;53400;50.364;14.874;2023-02-15T13:14:43;64.15;;;31.65;;
66546;SDS011;53400;50.364;14.874;2023-02-15T13:17:11;51.60;;;23.05;;
66546;SDS011;53400;50.364;14.874;2023-02-15T13:19:40;50.80;;;21.15;;
66546;SDS011;53400;50.364;14.874;2023-02-15T13:24:40;49.45;;;19.75;;
66546;SDS011;53400;50.364;14.874;2023-02-15T13:27:12;48.90;;;21.13;;
66546;SDS011;53400;50.364;14.874;2023-02-15T13:29:42;52.53;;;21.98;;
66546;SDS011;53400;50.364;14.874;2023-02-15T13:32:11;53.67;;;23.77;;
66546;SDS011;53400;50.364;14.874;2023-02-15T13:34:49;58.47;;;22.83;;
66546;SDS011;53400;50.364;14.874;2023-02-15T13:37:17;52.55;;;21.60;;
66546;SDS011;53400;50.364;14.874;2023-02-15T13:39:49;58.50;;;23.00;;
66546;SDS011;53400;50.364;14.874;2023-02-15T13:42:20;58.70;;;22.85;;
66546;SDS011;53400;50.364;14.874;2023-02-15T13:44:57;53.72;;;22.35;;
66546;SDS011;53400;50.364;14.874;2023-02-15T13:47:36;58.28;;;22.77;;
66546;SDS011;53400;50.364;14.874;2023-02-15T13:50:16;59.58;;;23.83;;
66546;SDS011;53400;50.364;14.874;2023-02-15T13:52:54;52.95;;;20.67;;
66546;SDS011;53400;50.364;14.874;2023-02-15T13:55:31;51.70;;;20.88;;
66546;SDS011;53400;50.364;14.874;2023-02-15T14:00:56;60.92;;;24.15;;
66546;SDS011;53400;50.364;14.874;2023-02-15T14:03:40;51.72;;;21.45;;
66546;SDS011;53400;50.364;14.874;2023-02-15T14:06:29;58.28;;;21.95;;
66546;SDS011;53400;50.364;14.874;2023-02-15T14:09:21;56.33;;;21.67;;
66546;SDS011;53400;50.364;14.874;2023-02-15T14:11:59;53.88;;;23.10;;
66546;SDS011;53400;50.364;14.874;2023-02-15T14:14:48;44.75;;;16.60;;
66546;SDS011;53400;50.364;14.874;2023-02-15T14:17:35;62.55;;;24.83;;
66546;SDS011;53400;50.364;14.874;2023-02-15T14:20:14;43.55;;;18.65;;
66546;SDS011;53400;50.364;14.874;2023-02-15T14:22:46;62.35;;;24.83;;
66546;SDS011;53400;50.364;14.874;2023-02-15T14:25:17;53.90;;;22.73;;
66546;SDS011;53400;50.364;14.874;2023-02-15T14:27:54;61.22;;;24.27;;
66546;SDS011;53400;50.364;14.874;2023-02-15T14:30:26;57.05;;;22.98;;
66546;SDS011;53400;50.364;14.874;2023-02-15T14:32:57;54.83;;;21.85;;
66546;SDS011;53400;50.364;14.874;2023-02-15T14:35:29;55.47;;;22.75;;
66546;SDS011;53400;50.364;14.874;2023-02-15T14:37:58;54.97;;;20.92;;
66546;SDS011;53400;50.364;14.874;2023-02-15T14:40:32;51.58;;;21.50;;
66546;SDS011;53400;50.364;14.874;2023-02-15T14:43:27;54.73;;;21.70;;
66546;SDS011;53400;50.364;14.874;2023-02-15T14:46:07;53.15;;;20.50;;